Terminal Aerodrome Forecast
Issued by NWS

Home | Current Version | Previous Version | Text Only | Print | Product List | Glossary Off
Versions: 1 2 3 4 5 6 7 8 9 10 11 12 13 14 15 16

091
FTUS43 KMPX 271446 AAB
TAFRWF
TAF AMD
KRWF 271446Z 2715/2812 10005KT P6SM BKN004 OVC012
     FM271800 15006KT P6SM SCT009 OVC020
     FM272100 15007KT P6SM SCT020 BKN035
     FM280000 15006KT P6SM SCT070
     FM280900 15006KT P6SM VCTS BKN070CB=

USA.gov is the U.S. government's official web portal to all federal, state and local government web resources and services.